sensor_id;sensor_type;location;lat;lon;timestamp;P1;durP1;ratioP1;P2;durP2;ratioP2
10523;SDS011;5310;48.638;9.060;2023-03-25T00:02:19;0.50;;;0.50;;
10523;SDS011;5310;48.638;9.060;2023-03-25T00:04:48;0.70;;;0.70;;
10523;SDS011;5310;48.638;9.060;2023-03-25T00:07:14;0.50;;;0.50;;
10523;SDS011;5310;48.638;9.060;2023-03-25T00:09:42;0.50;;;0.50;;
10523;SDS011;5310;48.638;9.060;2023-03-25T00:12:08;0.88;;;0.88;;
10523;SDS011;5310;48.638;9.060;2023-03-25T00:14:34;0.63;;;0.63;;
10523;SDS011;5310;48.638;9.060;2023-03-25T00:17:00;0.50;;;0.50;;
10523;SDS011;5310;48.638;9.060;2023-03-25T00:19:26;0.60;;;0.60;;
10523;SDS011;5310;48.638;9.060;2023-03-25T00:21:53;0.70;;;0.70;;
10523;SDS011;5310;48.638;9.060;2023-03-25T00:24:19;0.60;;;0.60;;
10523;SDS011;5310;48.638;9.060;2023-03-25T00:26:45;0.57;;;0.57;;
10523;SDS011;5310;48.638;9.060;2023-03-25T00:29:13;0.90;;;0.90;;
10523;SDS011;5310;48.638;9.060;2023-03-25T00:31:39;0.60;;;0.60;;
10523;SDS011;5310;48.638;9.060;2023-03-25T00:34:05;0.60;;;0.60;;
10523;SDS011;5310;48.638;9.060;2023-03-25T00:36:32;0.57;;;0.57;;
10523;SDS011;5310;48.638;9.060;2023-03-25T00:39:01;0.90;;;0.90;;
10523;SDS011;5310;48.638;9.060;2023-03-25T00:41:28;0.70;;;0.70;;
10523;SDS011;5310;48.638;9.060;2023-03-25T00:43:55;0.70;;;0.70;;
10523;SDS011;5310;48.638;9.060;2023-03-25T00:46:21;0.60;;;0.60;;
10523;SDS011;5310;48.638;9.060;2023-03-25T00:48:48;0.70;;;0.70;;
10523;SDS011;5310;48.638;9.060;2023-03-25T00:51:14;0.90;;;0.90;;
10523;SDS011;5310;48.638;9.060;2023-03-25T00:53:45;0.70;;;0.70;;
10523;SDS011;5310;48.638;9.060;2023-03-25T00:56:11;0.60;;;0.60;;
10523;SDS011;5310;48.638;9.060;2023-03-25T00:58:37;0.63;;;0.63;;
10523;SDS011;5310;48.638;9.060;2023-03-25T01:01:14;0.70;;;0.70;;
10523;SDS011;5310;48.638;9.060;2023-03-25T01:03:41;0.50;;;0.50;;
10523;SDS011;5310;48.638;9.060;2023-03-25T01:06:13;0.70;;;0.70;;
10523;SDS011;5310;48.638;9.060;2023-03-25T01:08:40;0.60;;;0.60;;
10523;SDS011;5310;48.638;9.060;2023-03-25T01:11:13;0.63;;;0.63;;
10523;SDS011;5310;48.638;9.060;2023-03-25T01:13:40;1.00;;;1.00;;
10523;SDS011;5310;48.638;9.060;2023-03-25T01:16:06;0.70;;;0.70;;
10523;SDS011;5310;48.638;9.060;2023-03-25T01:18:32;0.60;;;0.60;;
10523;SDS011;5310;48.638;9.060;2023-03-25T01:21:01;0.60;;;0.60;;
10523;SDS011;5310;48.638;9.060;2023-03-25T01:23:27;0.70;;;0.70;;
10523;SDS011;5310;48.638;9.060;2023-03-25T01:25:53;0.93;;;0.93;;
10523;SDS011;5310;48.638;9.060;2023-03-25T01:28:19;0.85;;;0.85;;
10523;SDS011;5310;48.638;9.060;2023-03-25T01:30:45;0.70;;;0.70;;
10523;SDS011;5310;48.638;9.060;2023-03-25T01:33:11;0.60;;;0.60;;
10523;SDS011;5310;48.638;9.060;2023-03-25T01:35:37;0.60;;;0.60;;
10523;SDS011;5310;48.638;9.060;2023-03-25T01:38:03;0.60;;;0.60;;
10523;SDS011;5310;48.638;9.060;2023-03-25T01:40:29;0.85;;;0.85;;
10523;SDS011;5310;48.638;9.060;2023-03-25T01:42:55;0.70;;;0.70;;
10523;SDS011;5310;48.638;9.060;2023-03-25T01:45:25;0.60;;;0.60;;
10523;SDS011;5310;48.638;9.060;2023-03-25T01:47:53;0.50;;;0.50;;
10523;SDS011;5310;48.638;9.060;2023-03-25T01:50:22;0.70;;;0.70;;
10523;SDS011;5310;48.638;9.060;2023-03-25T01:52:52;0.90;;;0.90;;
10523;SDS011;5310;48.638;9.060;2023-03-25T01:55:18;0.70;;;0.70;;
10523;SDS011;5310;48.638;9.060;2023-03-25T01:57:44;0.60;;;0.60;;
10523;SDS011;5310;48.638;9.060;2023-03-25T02:00:12;0.52;;;0.52;;
10523;SDS011;5310;48.638;9.060;2023-03-25T02:02:39;0.55;;;0.55;;
10523;SDS011;5310;48.638;9.060;2023-03-25T02:05:06;0.90;;;0.90;;
10523;SDS011;5310;48.638;9.060;2023-03-25T02:07:35;0.90;;;0.90;;
10523;SDS011;5310;48.638;9.060;2023-03-25T02:10:04;0.70;;;0.70;;
10523;SDS011;5310;48.638;9.060;2023-03-25T02:12:31;0.60;;;0.60;;
10523;SDS011;5310;48.638;9.060;2023-03-25T02:14:57;0.60;;;0.60;;
10523;SDS011;5310;48.638;9.060;2023-03-25T02:29:19;0.60;;;0.60;;
10523;SDS011;5310;48.638;9.060;2023-03-25T02:32:09;0.70;;;0.70;;
10523;SDS011;5310;48.638;9.060;2023-03-25T02:39:59;0.55;;;0.55;;
10523;SDS011;5310;48.638;9.060;2023-03-25T02:43:09;0.93;;;0.93;;
10523;SDS011;5310;48.638;9.060;2023-03-25T02:47:52;0.60;;;0.60;;
10523;SDS011;5310;48.638;9.060;2023-03-25T02:50:20;0.60;;;0.60;;
10523;SDS011;5310;48.638;9.060;2023-03-25T02:52:50;0.73;;;0.73;;
10523;SDS011;5310;48.638;9.060;2023-03-25T02:55:17;1.00;;;1.00;;
10523;SDS011;5310;48.638;9.060;2023-03-25T02:57:44;1.00;;;1.00;;
10523;SDS011;5310;48.638;9.060;2023-03-25T03:00:12;0.93;;;0.93;;
10523;SDS011;5310;48.638;9.060;2023-03-25T03:02:51;0.90;;;0.90;;
10523;SDS011;5310;48.638;9.060;2023-03-25T03:05:29;0.97;;;0.97;;
10523;SDS011;5310;48.638;9.060;2023-03-25T03:13:42;1.00;;;1.00;;
10523;SDS011;5310;48.638;9.060;2023-03-25T03:16:48;0.90;;;0.90;;
10523;SDS011;5310;48.638;9.060;2023-03-25T03:36:13;1.00;;;1.00;;
10523;SDS011;5310;48.638;9.060;2023-03-25T03:38:36;1.10;;;1.10;;
10523;SDS011;5310;48.638;9.060;2023-03-25T03:41:12;1.00;;;1.00;;
10523;SDS011;5310;48.638;9.060;2023-03-25T03:43:47;1.00;;;1.00;;
10523;SDS011;5310;48.638;9.060;2023-03-25T03:46:33;1.10;;;1.10;;
10523;SDS011;5310;48.638;9.060;2023-03-25T03:49:04;1.10;;;1.10;;
10523;SDS011;5310;48.638;9.060;2023-03-25T03:51:35;1.00;;;1.00;;
10523;SDS011;5310;48.638;9.060;2023-03-25T03:54:12;1.00;;;1.00;;
10523;SDS011;5310;48.638;9.060;2023-03-25T03:56:55;1.00;;;1.00;;
10523;SDS011;5310;48.638;9.060;2023-03-25T03:59:23;1.00;;;1.00;;
10523;SDS011;5310;48.638;9.060;2023-03-25T04:01:57;1.00;;;1.00;;
10523;SDS011;5310;48.638;9.060;2023-03-25T04:04:24;1.00;;;1.00;;
10523;SDS011;5310;48.638;9.060;2023-03-25T04:07:00;1.00;;;1.00;;
10523;SDS011;5310;48.638;9.060;2023-03-25T04:09:36;1.00;;;1.00;;
10523;SDS011;5310;48.638;9.060;2023-03-25T04:12:19;1.00;;;1.00;;
10523;SDS011;5310;48.638;9.060;2023-03-25T04:14:48;1.10;;;1.10;;
10523;SDS011;5310;48.638;9.060;2023-03-25T04:17:14;1.00;;;1.00;;
10523;SDS011;5310;48.638;9.060;2023-03-25T04:19:41;1.00;;;1.00;;
10523;SDS011;5310;48.638;9.060;2023-03-25T04:22:13;1.00;;;1.00;;
10523;SDS011;5310;48.638;9.060;2023-03-25T04:24:40;1.10;;;1.10;;
10523;SDS011;5310;48.638;9.060;2023-03-25T04:27:07;1.00;;;1.00;;
10523;SDS011;5310;48.638;9.060;2023-03-25T04:29:33;1.00;;;1.00;;
10523;SDS011;5310;48.638;9.060;2023-03-25T04:31:59;1.00;;;1.00;;
10523;SDS011;5310;48.638;9.060;2023-03-25T04:34:26;1.00;;;1.00;;
10523;SDS011;5310;48.638;9.060;2023-03-25T04:36:53;1.00;;;1.00;;
10523;SDS011;5310;48.638;9.060;2023-03-25T04:39:19;1.00;;;1.00;;
10523;SDS011;5310;48.638;9.060;2023-03-25T04:41:49;1.00;;;1.00;;
10523;SDS011;5310;48.638;9.060;2023-03-25T04:44:17;1.10;;;1.10;;
10523;SDS011;5310;48.638;9.060;2023-03-25T04:46:45;1.00;;;1.00;;
10523;SDS011;5310;48.638;9.060;2023-03-25T04:49:21;1.10;;;1.10;;
10523;SDS011;5310;48.638;9.060;2023-03-25T04:51:47;1.00;;;1.00;;
10523;SDS011;5310;48.638;9.060;2023-03-25T04:54:15;1.00;;;1.00;;
10523;SDS011;5310;48.638;9.060;2023-03-25T04:56:41;1.00;;;1.00;;
10523;SDS011;5310;48.638;9.060;2023-03-25T04:59:07;1.10;;;1.10;;
10523;SDS011;5310;48.638;9.060;2023-03-25T05:01:34;1.00;;;1.00;;
10523;SDS011;5310;48.638;9.060;2023-03-25T05:04:02;1.10;;;1.10;;
10523;SDS011;5310;48.638;9.060;2023-03-25T05:06:29;1.00;;;1.00;;
10523;SDS011;5310;48.638;9.060;2023-03-25T05:08:59;1.00;;;1.00;;
10523;SDS011;5310;48.638;9.060;2023-03-25T05:11:28;1.10;;;1.10;;
10523;SDS011;5310;48.638;9.060;2023-03-25T05:13:54;1.00;;;1.00;;
10523;SDS011;5310;48.638;9.060;2023-03-25T05:16:20;1.10;;;1.10;;
10523;SDS011;5310;48.638;9.060;2023-03-25T05:18:46;1.00;;;1.00;;
10523;SDS011;5310;48.638;9.060;2023-03-25T05:21:12;1.00;;;1.00;;
10523;SDS011;5310;48.638;9.060;2023-03-25T05:23:38;1.10;;;1.10;;
10523;SDS011;5310;48.638;9.060;2023-03-25T05:26:05;1.10;;;1.10;;
10523;SDS011;5310;48.638;9.060;2023-03-25T05:28:31;1.00;;;1.00;;
10523;SDS011;5310;48.638;9.060;2023-03-25T05:30:58;0.90;;;0.90;;
10523;SDS011;5310;48.638;9.060;2023-03-25T05:33:24;1.00;;;1.00;;
10523;SDS011;5310;48.638;9.060;2023-03-25T05:35:50;1.00;;;1.00;;
10523;SDS011;5310;48.638;9.060;2023-03-25T05:38:18;0.80;;;0.80;;
10523;SDS011;5310;48.638;9.060;2023-03-25T05:40:44;1.00;;;1.00;;
10523;SDS011;5310;48.638;9.060;2023-03-25T05:43:10;1.00;;;1.00;;
10523;SDS011;5310;48.638;9.060;2023-03-25T05:45:37;0.90;;;0.90;;
10523;SDS011;5310;48.638;9.060;2023-03-25T05:48:03;1.00;;;1.00;;
10523;SDS011;5310;48.638;9.060;2023-03-25T05:50:29;1.00;;;1.00;;
10523;SDS011;5310;48.638;9.060;2023-03-25T05:52:55;1.00;;;1.00;;
10523;SDS011;5310;48.638;9.060;2023-03-25T05:55:21;1.00;;;1.00;;
10523;SDS011;5310;48.638;9.060;2023-03-25T05:57:47;1.00;;;1.00;;
10523;SDS011;5310;48.638;9.060;2023-03-25T06:00:14;1.00;;;1.00;;
10523;SDS011;5310;48.638;9.060;2023-03-25T06:02:43;0.93;;;0.93;;
10523;SDS011;5310;48.638;9.060;2023-03-25T06:05:09;1.00;;;1.00;;
10523;SDS011;5310;48.638;9.060;2023-03-25T06:07:43;0.90;;;0.90;;
10523;SDS011;5310;48.638;9.060;2023-03-25T06:10:12;1.00;;;1.00;;
10523;SDS011;5310;48.638;9.060;2023-03-25T06:12:42;1.10;;;1.10;;
10523;SDS011;5310;48.638;9.060;2023-03-25T06:15:09;1.00;;;1.00;;
10523;SDS011;5310;48.638;9.060;2023-03-25T06:17:36;1.00;;;1.00;;
10523;SDS011;5310;48.638;9.060;2023-03-25T06:20:05;1.00;;;1.00;;
10523;SDS011;5310;48.638;9.060;2023-03-25T06:22:42;0.90;;;0.90;;
10523;SDS011;5310;48.638;9.060;2023-03-25T06:25:09;0.90;;;0.90;;
10523;SDS011;5310;48.638;9.060;2023-03-25T06:27:35;0.90;;;0.90;;
10523;SDS011;5310;48.638;9.060;2023-03-25T06:30:04;0.80;;;0.80;;
10523;SDS011;5310;48.638;9.060;2023-03-25T06:32:30;0.90;;;0.90;;
10523;SDS011;5310;48.638;9.060;2023-03-25T06:34:56;1.00;;;1.00;;
10523;SDS011;5310;48.638;9.060;2023-03-25T06:37:22;1.00;;;1.00;;
10523;SDS011;5310;48.638;9.060;2023-03-25T06:39:50;0.90;;;0.90;;
10523;SDS011;5310;48.638;9.060;2023-03-25T06:42:20;0.90;;;0.90;;
10523;SDS011;5310;48.638;9.060;2023-03-25T06:44:48;1.00;;;1.00;;
10523;SDS011;5310;48.638;9.060;2023-03-25T06:47:15;0.90;;;0.90;;
10523;SDS011;5310;48.638;9.060;2023-03-25T06:49:40;1.00;;;1.00;;
10523;SDS011;5310;48.638;9.060;2023-03-25T06:52:06;0.90;;;0.90;;
10523;SDS011;5310;48.638;9.060;2023-03-25T06:54:32;1.00;;;1.00;;
10523;SDS011;5310;48.638;9.060;2023-03-25T06:56:58;0.90;;;0.90;;
10523;SDS011;5310;48.638;9.060;2023-03-25T06:59:24;0.87;;;0.87;;
10523;SDS011;5310;48.638;9.060;2023-03-25T07:01:50;0.90;;;0.90;;
10523;SDS011;5310;48.638;9.060;2023-03-25T07:04:16;0.90;;;0.90;;
10523;SDS011;5310;48.638;9.060;2023-03-25T07:06:41;0.90;;;0.90;;
10523;SDS011;5310;48.638;9.060;2023-03-25T07:09:07;0.80;;;0.80;;
10523;SDS011;5310;48.638;9.060;2023-03-25T07:11:33;0.90;;;0.90;;
10523;SDS011;5310;48.638;9.060;2023-03-25T07:13:59;0.90;;;0.90;;
10523;SDS011;5310;48.638;9.060;2023-03-25T07:16:27;0.80;;;0.80;;
10523;SDS011;5310;48.638;9.060;2023-03-25T07:18:53;0.80;;;0.80;;
10523;SDS011;5310;48.638;9.060;2023-03-25T07:21:20;0.80;;;0.80;;
10523;SDS011;5310;48.638;9.060;2023-03-25T07:23:46;0.80;;;0.80;;
10523;SDS011;5310;48.638;9.060;2023-03-25T07:26:12;0.80;;;0.80;;
10523;SDS011;5310;48.638;9.060;2023-03-25T07:28:38;0.90;;;0.90;;
10523;SDS011;5310;48.638;9.060;2023-03-25T07:31:11;0.90;;;0.90;;
10523;SDS011;5310;48.638;9.060;2023-03-25T07:33:37;0.90;;;0.90;;
10523;SDS011;5310;48.638;9.060;2023-03-25T07:36:04;0.90;;;0.90;;
10523;SDS011;5310;48.638;9.060;2023-03-25T07:38:31;0.90;;;0.90;;
10523;SDS011;5310;48.638;9.060;2023-03-25T07:40:57;1.00;;;1.00;;
10523;SDS011;5310;48.638;9.060;2023-03-25T07:43:23;0.90;;;0.90;;
10523;SDS011;5310;48.638;9.060;2023-03-25T07:45:49;0.80;;;0.80;;
10523;SDS011;5310;48.638;9.060;2023-03-25T07:48:15;0.90;;;0.90;;
10523;SDS011;5310;48.638;9.060;2023-03-25T07:50:41;0.80;;;0.80;;
10523;SDS011;5310;48.638;9.060;2023-03-25T07:53:07;0.87;;;0.87;;
10523;SDS011;5310;48.638;9.060;2023-03-25T07:55:33;0.80;;;0.80;;
10523;SDS011;5310;48.638;9.060;2023-03-25T07:57:59;0.80;;;0.80;;
10523;SDS011;5310;48.638;9.060;2023-03-25T08:00:26;0.80;;;0.80;;
10523;SDS011;5310;48.638;9.060;2023-03-25T08:02:53;0.90;;;0.90;;
10523;SDS011;5310;48.638;9.060;2023-03-25T08:05:19;0.80;;;0.80;;
10523;SDS011;5310;48.638;9.060;2023-03-25T08:07:48;0.83;;;0.83;;
10523;SDS011;5310;48.638;9.060;2023-03-25T08:10:14;0.90;;;0.90;;
10523;SDS011;5310;48.638;9.060;2023-03-25T08:12:41;0.80;;;0.80;;
10523;SDS011;5310;48.638;9.060;2023-03-25T08:15:07;0.80;;;0.80;;
10523;SDS011;5310;48.638;9.060;2023-03-25T08:17:33;0.80;;;0.80;;
10523;SDS011;5310;48.638;9.060;2023-03-25T08:19:59;0.90;;;0.90;;
10523;SDS011;5310;48.638;9.060;2023-03-25T08:22:28;0.90;;;0.90;;
10523;SDS011;5310;48.638;9.060;2023-03-25T08:24:54;0.90;;;0.90;;
10523;SDS011;5310;48.638;9.060;2023-03-25T08:27:20;0.90;;;0.90;;
10523;SDS011;5310;48.638;9.060;2023-03-25T08:29:46;0.80;;;0.80;;
10523;SDS011;5310;48.638;9.060;2023-03-25T08:32:19;0.90;;;0.90;;
10523;SDS011;5310;48.638;9.060;2023-03-25T08:34:45;0.90;;;0.90;;
10523;SDS011;5310;48.638;9.060;2023-03-25T08:37:11;0.80;;;0.80;;
10523;SDS011;5310;48.638;9.060;2023-03-25T08:39:37;0.77;;;0.77;;
10523;SDS011;5310;48.638;9.060;2023-03-25T08:42:06;0.68;;;0.68;;
10523;SDS011;5310;48.638;9.060;2023-03-25T08:44:33;0.60;;;0.60;;
10523;SDS011;5310;48.638;9.060;2023-03-25T08:46:58;0.70;;;0.70;;
10523;SDS011;5310;48.638;9.060;2023-03-25T08:49:25;0.70;;;0.70;;
10523;SDS011;5310;48.638;9.060;2023-03-25T08:51:51;0.70;;;0.70;;
10523;SDS011;5310;48.638;9.060;2023-03-25T08:54:17;0.80;;;0.80;;
10523;SDS011;5310;48.638;9.060;2023-03-25T08:56:43;0.80;;;0.80;;
10523;SDS011;5310;48.638;9.060;2023-03-25T08:59:09;0.80;;;0.80;;
10523;SDS011;5310;48.638;9.060;2023-03-25T09:01:36;0.80;;;0.80;;
10523;SDS011;5310;48.638;9.060;2023-03-25T09:04:03;0.70;;;0.70;;
10523;SDS011;5310;48.638;9.060;2023-03-25T09:06:29;0.87;;;0.87;;
10523;SDS011;5310;48.638;9.060;2023-03-25T09:08:55;0.70;;;0.70;;
10523;SDS011;5310;48.638;9.060;2023-03-25T09:11:21;0.73;;;0.73;;
10523;SDS011;5310;48.638;9.060;2023-03-25T09:13:47;0.70;;;0.70;;
10523;SDS011;5310;48.638;9.060;2023-03-25T09:16:12;0.70;;;0.70;;
10523;SDS011;5310;48.638;9.060;2023-03-25T09:18:38;0.70;;;0.70;;
10523;SDS011;5310;48.638;9.060;2023-03-25T09:21:04;0.80;;;0.80;;
10523;SDS011;5310;48.638;9.060;2023-03-25T09:23:30;0.70;;;0.70;;
10523;SDS011;5310;48.638;9.060;2023-03-25T09:25:59;0.70;;;0.70;;
10523;SDS011;5310;48.638;9.060;2023-03-25T09:28:26;0.70;;;0.70;;
10523;SDS011;5310;48.638;9.060;2023-03-25T09:30:52;0.70;;;0.70;;
10523;SDS011;5310;48.638;9.060;2023-03-25T09:33:18;0.70;;;0.70;;
10523;SDS011;5310;48.638;9.060;2023-03-25T09:35:44;0.80;;;0.80;;
10523;SDS011;5310;48.638;9.060;2023-03-25T09:38:11;0.77;;;0.77;;
10523;SDS011;5310;48.638;9.060;2023-03-25T09:40:39;0.70;;;0.70;;
10523;SDS011;5310;48.638;9.060;2023-03-25T09:45:53;0.70;;;0.70;;
10523;SDS011;5310;48.638;9.060;2023-03-25T09:50:45;0.70;;;0.70;;
10523;SDS011;5310;48.638;9.060;2023-03-25T09:56:13;0.70;;;0.70;;
10523;SDS011;5310;48.638;9.060;2023-03-25T09:58:43;0.70;;;0.70;;
10523;SDS011;5310;48.638;9.060;2023-03-25T10:06:48;0.77;;;0.77;;
10523;SDS011;5310;48.638;9.060;2023-03-25T10:20:01;0.80;;;0.80;;
10523;SDS011;5310;48.638;9.060;2023-03-25T10:22:34;0.80;;;0.80;;
10523;SDS011;5310;48.638;9.060;2023-03-25T10:25:17;0.70;;;0.70;;
10523;SDS011;5310;48.638;9.060;2023-03-25T10:27:48;0.70;;;0.70;;
10523;SDS011;5310;48.638;9.060;2023-03-25T10:32:51;0.80;;;0.80;;
10523;SDS011;5310;48.638;9.060;2023-03-25T10:35:23;0.80;;;0.80;;
10523;SDS011;5310;48.638;9.060;2023-03-25T10:37:57;0.70;;;0.70;;
10523;SDS011;5310;48.638;9.060;2023-03-25T10:40:29;0.70;;;0.70;;
10523;SDS011;5310;48.638;9.060;2023-03-25T10:45:30;0.60;;;0.60;;
10523;SDS011;5310;48.638;9.060;2023-03-25T10:48:02;0.60;;;0.60;;
10523;SDS011;5310;48.638;9.060;2023-03-25T10:50:35;0.70;;;0.70;;
10523;SDS011;5310;48.638;9.060;2023-03-25T10:53:02;0.70;;;0.70;;
10523;SDS011;5310;48.638;9.060;2023-03-25T10:55:29;0.73;;;0.73;;
10523;SDS011;5310;48.638;9.060;2023-03-25T10:57:56;0.70;;;0.70;;
10523;SDS011;5310;48.638;9.060;2023-03-25T11:00:22;0.60;;;0.60;;
10523;SDS011;5310;48.638;9.060;2023-03-25T11:02:50;0.70;;;0.70;;
10523;SDS011;5310;48.638;9.060;2023-03-25T11:05:17;0.70;;;0.70;;
10523;SDS011;5310;48.638;9.060;2023-03-25T11:07:46;0.70;;;0.70;;
10523;SDS011;5310;48.638;9.060;2023-03-25T11:10:18;0.80;;;0.80;;
10523;SDS011;5310;48.638;9.060;2023-03-25T11:12:44;0.60;;;0.60;;
10523;SDS011;5310;48.638;9.060;2023-03-25T11:15:16;0.60;;;0.60;;
10523;SDS011;5310;48.638;9.060;2023-03-25T11:17:45;0.70;;;0.70;;
10523;SDS011;5310;48.638;9.060;2023-03-25T11:20:16;0.60;;;0.60;;
10523;SDS011;5310;48.638;9.060;2023-03-25T11:22:50;0.53;;;0.53;;
10523;SDS011;5310;48.638;9.060;2023-03-25T11:25:19;0.60;;;0.60;;
10523;SDS011;5310;48.638;9.060;2023-03-25T11:27:54;0.70;;;0.70;;
10523;SDS011;5310;48.638;9.060;2023-03-25T11:30:26;0.60;;;0.60;;
10523;SDS011;5310;48.638;9.060;2023-03-25T11:32:56;0.60;;;0.60;;
10523;SDS011;5310;48.638;9.060;2023-03-25T11:35:30;0.70;;;0.70;;
10523;SDS011;5310;48.638;9.060;2023-03-25T11:38:01;0.60;;;0.60;;
10523;SDS011;5310;48.638;9.060;2023-03-25T11:40:50;0.60;;;0.60;;
10523;SDS011;5310;48.638;9.060;2023-03-25T11:43:19;0.60;;;0.60;;
10523;SDS011;5310;48.638;9.060;2023-03-25T11:45:47;0.70;;;0.70;;
10523;SDS011;5310;48.638;9.060;2023-03-25T11:48:18;0.60;;;0.60;;
10523;SDS011;5310;48.638;9.060;2023-03-25T11:50:45;0.70;;;0.70;;
10523;SDS011;5310;48.638;9.060;2023-03-25T11:53:16;0.60;;;0.60;;
10523;SDS011;5310;48.638;9.060;2023-03-25T11:55:47;0.70;;;0.70;;
10523;SDS011;5310;48.638;9.060;2023-03-25T11:58:16;0.60;;;0.60;;
10523;SDS011;5310;48.638;9.060;2023-03-25T12:00:47;0.60;;;0.60;;
10523;SDS011;5310;48.638;9.060;2023-03-25T12:05:41;0.70;;;0.70;;
10523;SDS011;5310;48.638;9.060;2023-03-25T12:08:12;0.60;;;0.60;;
10523;SDS011;5310;48.638;9.060;2023-03-25T12:10:42;0.60;;;0.60;;
10523;SDS011;5310;48.638;9.060;2023-03-25T12:13:21;0.70;;;0.70;;
10523;SDS011;5310;48.638;9.060;2023-03-25T12:21:37;0.60;;;0.60;;
10523;SDS011;5310;48.638;9.060;2023-03-25T12:26:54;0.60;;;0.60;;
10523;SDS011;5310;48.638;9.060;2023-03-25T12:29:29;0.53;;;0.53;;
10523;SDS011;5310;48.638;9.060;2023-03-25T12:37:59;0.60;;;0.60;;
10523;SDS011;5310;48.638;9.060;2023-03-25T12:40:50;0.60;;;0.60;;
10523;SDS011;5310;48.638;9.060;2023-03-25T12:52:05;0.60;;;0.60;;
10523;SDS011;5310;48.638;9.060;2023-03-25T12:54:52;0.70;;;0.70;;
10523;SDS011;5310;48.638;9.060;2023-03-25T12:57:33;0.70;;;0.70;;
10523;SDS011;5310;48.638;9.060;2023-03-25T13:00:02;0.60;;;0.60;;
10523;SDS011;5310;48.638;9.060;2023-03-25T13:02:37;0.60;;;0.60;;
10523;SDS011;5310;48.638;9.060;2023-03-25T13:05:20;0.70;;;0.70;;
10523;SDS011;5310;48.638;9.060;2023-03-25T13:07:58;0.60;;;0.60;;
10523;SDS011;5310;48.638;9.060;2023-03-25T13:10:30;0.70;;;0.70;;
10523;SDS011;5310;48.638;9.060;2023-03-25T13:13:00;0.60;;;0.60;;
10523;SDS011;5310;48.638;9.060;2023-03-25T13:18:17;0.60;;;0.60;;
10523;SDS011;5310;48.638;9.060;2023-03-25T13:20:47;0.70;;;0.70;;
10523;SDS011;5310;48.638;9.060;2023-03-25T13:23:25;0.70;;;0.70;;
10523;SDS011;5310;48.638;9.060;2023-03-25T13:26:00;0.70;;;0.70;;
10523;SDS011;5310;48.638;9.060;2023-03-25T13:28:35;0.77;;;0.77;;
10523;SDS011;5310;48.638;9.060;2023-03-25T13:31:12;0.70;;;0.70;;
10523;SDS011;5310;48.638;9.060;2023-03-25T13:33:40;0.70;;;0.70;;
10523;SDS011;5310;48.638;9.060;2023-03-25T13:36:21;0.70;;;0.70;;
10523;SDS011;5310;48.638;9.060;2023-03-25T13:38:52;0.60;;;0.60;;
10523;SDS011;5310;48.638;9.060;2023-03-25T13:41:28;0.60;;;0.60;;
10523;SDS011;5310;48.638;9.060;2023-03-25T13:46:35;0.70;;;0.70;;
10523;SDS011;5310;48.638;9.060;2023-03-25T13:49:11;0.70;;;0.70;;
10523;SDS011;5310;48.638;9.060;2023-03-25T13:51:45;0.60;;;0.60;;
10523;SDS011;5310;48.638;9.060;2023-03-25T13:54:20;0.70;;;0.70;;
10523;SDS011;5310;48.638;9.060;2023-03-25T13:57:07;0.60;;;0.60;;
10523;SDS011;5310;48.638;9.060;2023-03-25T14:08:46;0.60;;;0.60;;
10523;SDS011;5310;48.638;9.060;2023-03-25T14:13:52;0.60;;;0.60;;
10523;SDS011;5310;48.638;9.060;2023-03-25T14:16:32;0.60;;;0.60;;
10523;SDS011;5310;48.638;9.060;2023-03-25T14:19:02;0.60;;;0.60;;
10523;SDS011;5310;48.638;9.060;2023-03-25T14:24:23;0.60;;;0.60;;
10523;SDS011;5310;48.638;9.060;2023-03-25T14:27:13;0.60;;;0.60;;
10523;SDS011;5310;48.638;9.060;2023-03-25T14:29:43;0.50;;;0.50;;
10523;SDS011;5310;48.638;9.060;2023-03-25T14:34:42;0.60;;;0.60;;
10523;SDS011;5310;48.638;9.060;2023-03-25T14:39:40;0.60;;;0.60;;
10523;SDS011;5310;48.638;9.060;2023-03-25T14:44:33;0.60;;;0.60;;
10523;SDS011;5310;48.638;9.060;2023-03-25T14:49:28;0.60;;;0.60;;
10523;SDS011;5310;48.638;9.060;2023-03-25T14:52:15;0.60;;;0.60;;
10523;SDS011;5310;48.638;9.060;2023-03-25T14:54:41;0.60;;;0.60;;
10523;SDS011;5310;48.638;9.060;2023-03-25T14:57:14;0.60;;;0.60;;
10523;SDS011;5310;48.638;9.060;2023-03-25T14:59:43;0.57;;;0.57;;
10523;SDS011;5310;48.638;9.060;2023-03-25T15:04:40;0.60;;;0.60;;
10523;SDS011;5310;48.638;9.060;2023-03-25T15:07:10;0.60;;;0.60;;
10523;SDS011;5310;48.638;9.060;2023-03-25T15:09:45;0.60;;;0.60;;
10523;SDS011;5310;48.638;9.060;2023-03-25T15:12:15;0.60;;;0.60;;
10523;SDS011;5310;48.638;9.060;2023-03-25T15:14:44;0.60;;;0.60;;
10523;SDS011;5310;48.638;9.060;2023-03-25T15:17:37;0.60;;;0.60;;
10523;SDS011;5310;48.638;9.060;2023-03-25T15:22:46;0.60;;;0.60;;
10523;SDS011;5310;48.638;9.060;2023-03-25T15:25:50;0.60;;;0.60;;
10523;SDS011;5310;48.638;9.060;2023-03-25T15:31:32;0.70;;;0.70;;
10523;SDS011;5310;48.638;9.060;2023-03-25T15:34:25;0.60;;;0.60;;
10523;SDS011;5310;48.638;9.060;2023-03-25T15:39:58;0.60;;;0.60;;
10523;SDS011;5310;48.638;9.060;2023-03-25T15:50:47;0.63;;;0.63;;
10523;SDS011;5310;48.638;9.060;2023-03-25T15:53:35;0.70;;;0.70;;
10523;SDS011;5310;48.638;9.060;2023-03-25T15:56:35;0.70;;;0.70;;
10523;SDS011;5310;48.638;9.060;2023-03-25T16:01:49;0.60;;;0.60;;
10523;SDS011;5310;48.638;9.060;2023-03-25T16:06:49;0.70;;;0.70;;
10523;SDS011;5310;48.638;9.060;2023-03-25T16:09:19;0.63;;;0.63;;
10523;SDS011;5310;48.638;9.060;2023-03-25T16:11:48;0.70;;;0.70;;
10523;SDS011;5310;48.638;9.060;2023-03-25T16:14:15;0.70;;;0.70;;
10523;SDS011;5310;48.638;9.060;2023-03-25T16:16:52;0.60;;;0.60;;
10523;SDS011;5310;48.638;9.060;2023-03-25T16:19:20;0.60;;;0.60;;
10523;SDS011;5310;48.638;9.060;2023-03-25T16:22:21;0.70;;;0.70;;
10523;SDS011;5310;48.638;9.060;2023-03-25T16:24:51;0.60;;;0.60;;
10523;SDS011;5310;48.638;9.060;2023-03-25T16:27:21;0.60;;;0.60;;
10523;SDS011;5310;48.638;9.060;2023-03-25T16:29:48;0.60;;;0.60;;
10523;SDS011;5310;48.638;9.060;2023-03-25T16:32:19;0.70;;;0.70;;
10523;SDS011;5310;48.638;9.060;2023-03-25T16:34:49;0.70;;;0.70;;
10523;SDS011;5310;48.638;9.060;2023-03-25T16:37:17;0.70;;;0.70;;
10523;SDS011;5310;48.638;9.060;2023-03-25T16:39:48;0.60;;;0.60;;
10523;SDS011;5310;48.638;9.060;2023-03-25T16:42:19;0.60;;;0.60;;
10523;SDS011;5310;48.638;9.060;2023-03-25T16:44:49;0.50;;;0.50;;
10523;SDS011;5310;48.638;9.060;2023-03-25T16:47:15;0.75;;;0.75;;
10523;SDS011;5310;48.638;9.060;2023-03-25T16:49:44;0.60;;;0.60;;
10523;SDS011;5310;48.638;9.060;2023-03-25T16:52:12;0.63;;;0.63;;
10523;SDS011;5310;48.638;9.060;2023-03-25T16:54:44;0.60;;;0.60;;
10523;SDS011;5310;48.638;9.060;2023-03-25T16:57:15;0.67;;;0.67;;
10523;SDS011;5310;48.638;9.060;2023-03-25T16:59:43;0.60;;;0.60;;
10523;SDS011;5310;48.638;9.060;2023-03-25T17:07:44;0.70;;;0.70;;
10523;SDS011;5310;48.638;9.060;2023-03-25T17:10:28;0.70;;;0.70;;
10523;SDS011;5310;48.638;9.060;2023-03-25T17:13:01;0.70;;;0.70;;
10523;SDS011;5310;48.638;9.060;2023-03-25T17:15:32;0.70;;;0.70;;
10523;SDS011;5310;48.638;9.060;2023-03-25T17:17:58;0.55;;;0.55;;
10523;SDS011;5310;48.638;9.060;2023-03-25T17:20:32;0.60;;;0.60;;
10523;SDS011;5310;48.638;9.060;2023-03-25T17:26:04;0.60;;;0.60;;
10523;SDS011;5310;48.638;9.060;2023-03-25T17:31:35;0.60;;;0.60;;
10523;SDS011;5310;48.638;9.060;2023-03-25T17:36:40;0.70;;;0.70;;
10523;SDS011;5310;48.638;9.060;2023-03-25T17:39:25;0.40;;;0.40;;
10523;SDS011;5310;48.638;9.060;2023-03-25T17:41:54;0.70;;;0.70;;
10523;SDS011;5310;48.638;9.060;2023-03-25T17:44:22;0.40;;;0.40;;
10523;SDS011;5310;48.638;9.060;2023-03-25T17:46:49;0.50;;;0.50;;
10523;SDS011;5310;48.638;9.060;2023-03-25T17:49:16;0.50;;;0.50;;
10523;SDS011;5310;48.638;9.060;2023-03-25T17:51:43;0.50;;;0.50;;
10523;SDS011;5310;48.638;9.060;2023-03-25T17:54:09;0.60;;;0.60;;
10523;SDS011;5310;48.638;9.060;2023-03-25T17:56:35;0.40;;;0.40;;
10523;SDS011;5310;48.638;9.060;2023-03-25T17:59:21;0.70;;;0.70;;
10523;SDS011;5310;48.638;9.060;2023-03-25T18:01:49;0.63;;;0.63;;
10523;SDS011;5310;48.638;9.060;2023-03-25T18:04:15;0.90;;;0.90;;